Time;durP1;ratioP1;P1;durP2;ratioP2;P2;SDS_P1;SDS_P2;PMS_P1;PMS_P2;Temp;Humidity;BMP_temperature;BMP_pressure;BME280_temperature;BME280_humidity;BME280_pressure;Samples;Min_cycle;Max_cycle;Signal;HPM_P1;HPM_P2
2023/03/24 00:04:07;;;;;;;;;;;;;;;;;;4979266;28;6954;-61
2023/03/24 00:06:35;;;;;;;;;;;;;;;;;;4979206;28;7390;-61
2023/03/24 00:09:03;;;;;;;;;;;;;;;;;;4978403;28;6940;-61
2023/03/24 00:11:56;;;;;;;;;;;;;;;;;;4979007;28;6970;-61
2023/03/24 00:17:28;;;;;;;;;;;;;;;;;;4978858;28;6929;-61
2023/03/24 00:22:57;;;;;;;;;;;;;;;;;;4978893;28;6687;-61
2023/03/24 00:25:53;;;;;;;;;;;;;;;;;;4978960;28;7146;-61
2023/03/24 00:28:19;;;;;;;;;;;;;;;;;;4978916;28;6936;-61
2023/03/24 00:30:56;;;;;;;;;;;;;;;;;;4979400;28;6844;-61
2023/03/24 00:36:54;;;;;;;;;;;;;;;;;;4978463;28;6913;-61
2023/03/24 00:39:20;;;;;;;;;;;;;;;;;;4979339;28;7415;-61
2023/03/24 00:41:49;;;;;;;;;;;;;;;;;;4978305;28;7889;-61
2023/03/24 00:44:18;;;;;;;;;;;;;;;;;;4978682;28;7109;-61
2023/03/24 00:46:45;;;;;;;;;;;;;;;;;;4978151;28;8518;-61
2023/03/24 00:49:11;;;;;;;;;;;;;;;;;;4978593;28;7234;-61
2023/03/24 00:51:39;;;;;;;;;;;;;;;;;;4979043;28;8672;-61
2023/03/24 00:54:06;;;;;;;;;;;;;;;;;;4978478;28;7216;-61
2023/03/24 00:56:34;;;;;;;;;;;;;;;;;;4978075;28;6965;-61
2023/03/24 01:02:23;;;;;;;;;;;;;;;;;;4978163;28;6922;-61
2023/03/24 01:04:56;;;;;;;;;;;;;;;;;;4976983;28;8822;-61
2023/03/24 01:07:23;;;;;;;;;;;;;;;;;;4978123;28;7025;-61
2023/03/24 01:09:56;;;;;;;;;;;;;;;;;;4977712;28;7386;-61
2023/03/24 01:12:27;;;;;;;;;;;;;;;;;;4978229;28;7137;-61
2023/03/24 01:24:03;;;;;;;;;;;;;;;;;;4977799;28;6959;-61
2023/03/24 01:26:29;;;;;;;;;;;;;;;;;;4977789;28;6944;-61
2023/03/24 01:28:55;;;;;;;;;;;;;;;;;;4977599;28;7134;-63
2023/03/24 01:34:23;;;;;;;;;;;;;;;;;;4977590;28;6930;-60
2023/03/24 01:39:52;;;;;;;;;;;;;;;;;;4977463;28;6977;-61
2023/03/24 01:42:50;;;;;;;;;;;;;;;;;;4977296;28;7145;-61
2023/03/24 01:45:34;;;;;;;;;;;;;;;;;;4977557;28;7213;-61
2023/03/24 01:51:08;;;;;;;;;;;;;;;;;;4977303;28;6688;-61
2023/03/24 01:53:36;;;;;;;;;;;;;;;;;;4977397;28;7430;-61
2023/03/24 01:56:05;;;;;;;;;;;;;;;;;;4977892;28;7185;-61
2023/03/24 01:58:33;;;;;;;;;;;;;;;;;;4977489;28;7052;-60
2023/03/24 02:01:11;;;;;;;;;;;;;;;;;;4977197;28;7383;-60
2023/03/24 02:03:39;;;;;;;;;;;;;;;;;;4977335;28;7132;-60
2023/03/24 02:06:05;;;;;;;;;;;;;;;;;;4976827;28;8611;-60
2023/03/24 02:08:37;;;;;;;;;;;;;;;;;;4976937;28;7128;-60
2023/03/24 02:11:02;;;;;;;;;;;;;;;;;;4977069;28;7183;-60
2023/03/24 02:13:28;;;;;;;;;;;;;;;;;;4976947;28;7151;-60
2023/03/24 02:16:12;;;;;;;;;;;;;;;;;;4976976;28;6987;-60
2023/03/24 02:21:59;;;;;;;;;;;;;;;;;;4976668;28;6683;-60
2023/03/24 02:24:39;;;;;;;;;;;;;;;;;;4977409;28;7113;-60
2023/03/24 02:27:05;;;;;;;;;;;;;;;;;;4977089;28;7161;-60
2023/03/24 02:33:04;;;;;;;;;;;;;;;;;;4976593;28;6696;-60
2023/03/24 02:35:35;;;;;;;;;;;;;;;;;;4976622;28;7410;-60
2023/03/24 02:38:23;;;;;;;;;;;;;;;;;;4976568;28;7385;-60
2023/03/24 02:41:07;;;;;;;;;;;;;;;;;;4976454;28;7201;-60
2023/03/24 02:43:51;;;;;;;;;;;;;;;;;;4977330;28;7145;-60
2023/03/24 02:49:39;;;;;;;;;;;;;;;;;;4976236;28;6916;-61
2023/03/24 02:52:11;;;;;;;;;;;;;;;;;;4976322;28;7168;-61
2023/03/24 02:54:57;;;;;;;;;;;;;;;;;;4976138;28;7109;-60
2023/03/24 02:57:30;;;;;;;;;;;;;;;;;;4975502;28;7092;-60
2023/03/24 03:03:04;;;;;;;;;;;;;;;;;;4976000;28;6689;-61
2023/03/24 03:06:01;;;;;;;;;;;;;;;;;;4976243;28;7080;-61
2023/03/24 03:09:00;;;;;;;;;;;;;;;;;;4975556;28;7166;-61
2023/03/24 03:11:25;;;;;;;;;;;;;;;;;;4976289;28;7151;-61
2023/03/24 03:14:01;;;;;;;;;;;;;;;;;;4976035;28;7156;-61
2023/03/24 03:19:55;;;;;;;;;;;;;;;;;;4975970;28;6970;-61
2023/03/24 03:22:24;;;;;;;;;;;;;;;;;;4975913;28;7369;-60
2023/03/24 03:24:53;;;;;;;;;;;;;;;;;;4975873;28;7183;-61
2023/03/24 03:27:26;;;;;;;;;;;;;;;;;;4975828;28;7153;-61
2023/03/24 03:33:23;;;;;;;;;;;;;;;;;;4977919;28;6775;-61
2023/03/24 03:35:52;;;;;;;;;;;;;;;;;;4979637;28;7244;-61
2023/03/24 03:38:36;;;;;;;;;;;;;;;;;;4979734;28;7123;-61
2023/03/24 03:44:04;;;;;;;;;;;;;;;;;;4979599;28;6684;-61
2023/03/24 03:46:29;;;;;;;;;;;;;;;;;;4979702;28;7149;-61
2023/03/24 03:48:55;;;;;;;;;;;;;;;;;;4979537;28;7511;-61
2023/03/24 03:54:27;;;;;;;;;;;;;;;;;;4979286;28;6983;-61
2023/03/24 03:56:53;;;;;;;;;;;;;;;;;;4979501;28;7035;-61
2023/03/24 04:02:40;;;;;;;;;;;;;;;;;;4979306;28;6931;-61
2023/03/24 04:05:19;;;;;;;;;;;;;;;;;;4979399;28;7497;-60
2023/03/24 04:14:05;;;;;;;;;;;;;;;;;;4979425;28;6935;-60
2023/03/24 04:16:50;;;;;;;;;;;;;;;;;;4979964;28;7410;-60
2023/03/24 04:19:32;;;;;;;;;;;;;;;;;;4979747;28;7628;-60
2023/03/24 04:22:09;;;;;;;;;;;;;;;;;;4979094;28;7423;-60
2023/03/24 04:24:50;;;;;;;;;;;;;;;;;;4979016;28;7183;-61
2023/03/24 04:27:29;;;;;;;;;;;;;;;;;;4978537;28;7278;-61
2023/03/24 04:30:05;;;;;;;;;;;;;;;;;;4978757;28;6989;-61
2023/03/24 04:32:57;;;;;;;;;;;;;;;;;;4978837;28;7196;-61
2023/03/24 04:35:48;;;;;;;;;;;;;;;;;;4979440;28;6985;-61
2023/03/24 04:38:22;;;;;;;;;;;;;;;;;;4977345;28;8852;-61
2023/03/24 04:40:50;;;;;;;;;;;;;;;;;;4978847;28;6954;-61
2023/03/24 04:43:52;;;;;;;;;;;;;;;;;;4978204;28;7168;-61
2023/03/24 04:46:18;;;;;;;;;;;;;;;;;;4979497;28;7121;-61
2023/03/24 04:48:47;;;;;;;;;;;;;;;;;;4979334;28;6965;-61
2023/03/24 04:51:27;;;;;;;;;;;;;;;;;;4978524;28;6883;-61
2023/03/24 04:53:53;;;;;;;;;;;;;;;;;;4978470;28;7033;-61
2023/03/24 04:59:21;;;;;;;;;;;;;;;;;;4978397;28;6747;-61
2023/03/24 05:01:57;;;;;;;;;;;;;;;;;;4978257;28;7205;-60
2023/03/24 05:04:24;;;;;;;;;;;;;;;;;;4978420;28;7237;-60
2023/03/24 05:06:50;;;;;;;;;;;;;;;;;;4978140;28;7043;-60
2023/03/24 05:09:17;;;;;;;;;;;;;;;;;;4977470;28;8239;-61
2023/03/24 05:11:59;;;;;;;;;;;;;;;;;;4976877;28;7185;-61
2023/03/24 05:14:28;;;;;;;;;;;;;;;;;;4977834;28;7134;-60
2023/03/24 05:16:54;;;;;;;;;;;;;;;;;;4977558;28;8567;-60
2023/03/24 05:22:22;;;;;;;;;;;;;;;;;;4977838;28;6922;-60
2023/03/24 05:24:47;;;;;;;;;;;;;;;;;;4977751;28;7001;-60
2023/03/24 05:27:13;;;;;;;;;;;;;;;;;;4977492;28;8171;-60
2023/03/24 05:32:41;;;;;;;;;;;;;;;;;;4977679;28;6689;-60
2023/03/24 05:38:10;;;;;;;;;;;;;;;;;;4977460;28;7011;-60
2023/03/24 05:46:41;;;;;;;;;;;;;;;;;;4977198;28;6694;-60
2023/03/24 05:49:07;;;;;;;;;;;;;;;;;;4977582;28;7270;-60
2023/03/24 05:51:32;;;;;;;;;;;;;;;;;;4977463;28;7190;-60
2023/03/24 05:57:01;;;;;;;;;;;;;;;;;;4977344;28;6687;-60
2023/03/24 05:59:28;;;;;;;;;;;;;;;;;;4977368;28;7196;-60
2023/03/24 06:01:57;;;;;;;;;;;;;;;;;;4977222;28;6984;-60
2023/03/24 06:10:28;;;;;;;;;;;;;;;;;;4976632;28;6913;-60
2023/03/24 06:12:54;;;;;;;;;;;;;;;;;;4977314;28;7185;-60
2023/03/24 06:18:32;;;;;;;;;;;;;;;;;;4976651;28;6688;-60
2023/03/24 06:20:58;;;;;;;;;;;;;;;;;;4976675;28;6847;-60
2023/03/24 06:23:55;;;;;;;;;;;;;;;;;;4976564;28;6936;-60
2023/03/24 06:26:20;;;;;;;;;;;;;;;;;;4976425;28;7211;-60
2023/03/24 06:28:46;;;;;;;;;;;;;;;;;;4976758;28;7144;-60
2023/03/24 06:34:11;;;;;;;;;;;;;;;;;;4976870;28;7005;-60
2023/03/24 06:36:43;;;;;;;;;;;;;;;;;;4976562;28;6930;-60
2023/03/24 06:39:09;;;;;;;;;;;;;;;;;;4976371;28;7391;-60
2023/03/24 06:41:40;;;;;;;;;;;;;;;;;;4976694;28;7171;-60
2023/03/24 06:44:05;;;;;;;;;;;;;;;;;;4976120;28;7095;-61
2023/03/24 06:49:50;;;;;;;;;;;;;;;;;;4976335;28;6763;-60
2023/03/24 06:52:15;;;;;;;;;;;;;;;;;;4976337;28;7210;-60
2023/03/24 06:55:17;;;;;;;;;;;;;;;;;;4976059;28;7127;-51
2023/03/24 06:57:43;;;;;;;;;;;;;;;;;;4963185;28;7171;-48
2023/03/24 07:06:28;;;;;;;;;;;;;;;;;;4956699;28;7035;-49
2023/03/24 07:12:02;;;;;;;;;;;;;;;;;;4956680;28;6707;-52
2023/03/24 07:14:27;;;;;;;;;;;;;;;;;;4956444;28;7206;-57
2023/03/24 07:20:19;;;;;;;;;;;;;;;;;;4956747;28;6722;-56
2023/03/24 07:22:45;;;;;;;;;;;;;;;;;;4956732;28;7253;-57
2023/03/24 07:25:18;;;;;;;;;;;;;;;;;;4956388;28;7881;-56
2023/03/24 07:27:45;;;;;;;;;;;;;;;;;;4956577;29;8490;-56
2023/03/24 07:30:12;;;;;;;;;;;;;;;;;;4956649;29;7173;-56
2023/03/24 07:32:38;;;;;;;;;;;;;;;;;;4956607;29;7226;-56
2023/03/24 07:37:58;;;;;;;;;;;;;;;;;;4956517;29;6895;-56
2023/03/24 07:40:23;;;;;;;;;;;;;;;;;;4956556;29;6951;-56
2023/03/24 07:43:21;;;;;;;;;;;;;;;;;;4956835;29;7103;-56
2023/03/24 07:45:46;;;;;;;;;;;;;;;;;;4956219;29;7391;-56
2023/03/24 07:48:12;;;;;;;;;;;;;;;;;;4956314;29;7229;-56
2023/03/24 07:50:53;;;;;;;;;;;;;;;;;;4956164;29;7182;-56
2023/03/24 07:53:18;;;;;;;;;;;;;;;;;;4956374;29;7156;-57
2023/03/24 07:55:57;;;;;;;;;;;;;;;;;;4956477;29;7220;-57
2023/03/24 07:58:23;;;;;;;;;;;;;;;;;;4956302;29;7065;-57
2023/03/24 08:01:01;;;;;;;;;;;;;;;;;;4956206;29;6925;-56
2023/03/24 08:03:28;;;;;;;;;;;;;;;;;;4956273;29;7029;-57
2023/03/24 08:06:28;;;;;;;;;;;;;;;;;;4956113;29;6966;-57
2023/03/24 08:09:03;;;;;;;;;;;;;;;;;;4955923;29;6951;-57
2023/03/24 08:11:29;;;;;;;;;;;;;;;;;;4956034;29;8070;-56
2023/03/24 08:13:54;;;;;;;;;;;;;;;;;;4956346;29;7147;-56
2023/03/24 08:16:40;;;;;;;;;;;;;;;;;;4956247;29;7075;-56
2023/03/24 08:19:06;;;;;;;;;;;;;;;;;;4958051;28;7414;-56
2023/03/24 08:21:33;;;;;;;;;;;;;;;;;;4959764;28;7120;-56
2023/03/24 08:23:58;;;;;;;;;;;;;;;;;;4959858;28;7281;-56
2023/03/24 08:26:48;;;;;;;;;;;;;;;;;;4959597;28;7144;-56
2023/03/24 08:29:14;;;;;;;;;;;;;;;;;;4959761;28;7588;-56
2023/03/24 08:32:13;;;;;;;;;;;;;;;;;;4959680;28;6974;-56
2023/03/24 08:34:38;;;;;;;;;;;;;;;;;;4959648;28;7397;-57
2023/03/24 08:37:04;;;;;;;;;;;;;;;;;;4959150;28;6926;-56
2023/03/24 08:42:32;;;;;;;;;;;;;;;;;;4959156;28;6915;-57
2023/03/24 08:44:58;;;;;;;;;;;;;;;;;;4959443;28;6971;-57
2023/03/24 08:47:23;;;;;;;;;;;;;;;;;;4959208;28;7252;-58
2023/03/24 09:00:13;;;;;;;;;;;;;;;;;;5363633;23;7635;-60
2023/03/24 09:02:44;;;;;;;;;;;;;;;;;;5036176;28;9386;-59
2023/03/24 09:05:10;;;;;;;;;;;;;;;;;;5037218;28;8200;-59
2023/03/24 09:07:36;;;;;;;;;;;;;;;;;;5036846;28;7058;-59
2023/03/24 09:10:09;;;;;;;;;;;;;;;;;;5037107;28;7150;-59
2023/03/24 09:12:35;;;;;;;;;;;;;;;;;;5036851;28;7170;-60
2023/03/24 09:15:01;;;;;;;;;;;;;;;;;;5036767;28;7246;-59
2023/03/24 09:20:36;;;;;;;;;;;;;;;;;;5036764;28;6692;-59
2023/03/24 09:23:35;;;;;;;;;;;;;;;;;;5037111;28;6991;-60
2023/03/24 09:26:01;;;;;;;;;;;;;;;;;;5037420;28;6965;-59
2023/03/24 09:28:27;;;;;;;;;;;;;;;;;;5036633;28;7395;-59
2023/03/24 09:31:05;;;;;;;;;;;;;;;;;;5035642;28;6974;-59
2023/03/24 09:33:33;;;;;;;;;;;;;;;;;;5036746;28;7419;-60
2023/03/24 09:36:00;;;;;;;;;;;;;;;;;;5037457;28;8631;-59
2023/03/24 09:38:38;;;;;;;;;;;;;;;;;;5036679;28;7142;-59
2023/03/24 09:41:04;;;;;;;;;;;;;;;;;;5036625;28;7220;-59
2023/03/24 09:43:39;;;;;;;;;;;;;;;;;;5036099;28;6950;-59
2023/03/24 09:46:16;;;;;;;;;;;;;;;;;;5036495;28;6995;-59
2023/03/24 09:48:41;;;;;;;;;;;;;;;;;;5036229;28;7334;-59
2023/03/24 09:51:28;;;;;;;;;;;;;;;;;;5036369;28;7156;-58
2023/03/24 09:56:56;;;;;;;;;;;;;;;;;;5036274;28;6781;-59
2023/03/24 09:59:40;;;;;;;;;;;;;;;;;;5035872;28;6976;-59
2023/03/24 10:05:15;;;;;;;;;;;;;;;;;;5035941;28;6719;-58
2023/03/24 10:07:55;;;;;;;;;;;;;;;;;;5035962;28;6963;-57
2023/03/24 10:10:56;;;;;;;;;;;;;;;;;;5036011;28;7209;-57
2023/03/24 10:19:40;;;;;;;;;;;;;;;;;;5035870;28;6750;-57
2023/03/24 10:28:19;;;;;;;;;;;;;;;;;;5035336;28;6682;-60
2023/03/24 10:34:02;;;;;;;;;;;;;;;;;;5035376;28;7035;-60
2023/03/24 10:36:39;;;;;;;;;;;;;;;;;;5035445;28;7071;-60
2023/03/24 10:39:04;;;;;;;;;;;;;;;;;;5035480;28;7077;-60
2023/03/24 10:41:32;;;;;;;;;;;;;;;;;;5035081;28;7165;-60
2023/03/24 10:44:00;;;;;;;;;;;;;;;;;;5017568;28;8420;-59
2023/03/24 10:46:30;;;;;;;;;;;;;;;;;;5035219;28;7208;-60
2023/03/24 10:49:09;;;;;;;;;;;;;;;;;;5034954;28;7992;-60
2023/03/24 10:51:35;;;;;;;;;;;;;;;;;;5035282;28;7186;-57
2023/03/24 10:54:23;;;;;;;;;;;;;;;;;;5034994;28;7208;-57
2023/03/24 10:56:51;;;;;;;;;;;;;;;;;;5035108;28;7821;-57
2023/03/24 10:59:17;;;;;;;;;;;;;;;;;;5035053;28;7403;-57
2023/03/24 11:01:43;;;;;;;;;;;;;;;;;;5034719;28;6964;-57
2023/03/24 11:04:13;;;;;;;;;;;;;;;;;;5035118;28;6952;-57
2023/03/24 11:07:03;;;;;;;;;;;;;;;;;;5034730;28;7184;-57
2023/03/24 11:09:32;;;;;;;;;;;;;;;;;;5034919;28;6832;-57
2023/03/24 11:15:27;;;;;;;;;;;;;;;;;;5034758;28;6682;-57
2023/03/24 11:18:11;;;;;;;;;;;;;;;;;;5034581;28;7226;-57
2023/03/24 11:20:57;;;;;;;;;;;;;;;;;;5034652;28;7005;-57
2023/03/24 11:23:31;;;;;;;;;;;;;;;;;;5034420;28;7393;-57
2023/03/24 11:32:26;;;;;;;;;;;;;;;;;;5034648;28;6686;-57
2023/03/24 11:37:54;;;;;;;;;;;;;;;;;;5014569;28;6935;-58
2023/03/24 11:40:48;;;;;;;;;;;;;;;;;;5014885;28;6948;-58
2023/03/24 11:43:19;;;;;;;;;;;;;;;;;;5014918;28;7051;-58
2023/03/24 11:51:55;;;;;;;;;;;;;;;;;;5014687;28;6926;-57
2023/03/24 11:54:27;;;;;;;;;;;;;;;;;;5017389;28;7826;-57
2023/03/24 11:57:14;;;;;;;;;;;;;;;;;;5018456;28;7163;-57
2023/03/24 12:18:55;;;;;;;;;;;;;;;;;;4998727;28;6677;-57
2023/03/24 12:24:50;;;;;;;;;;;;;;;;;;4998663;28;6685;-57
2023/03/24 12:27:28;;;;;;;;;;;;;;;;;;4998387;28;7091;-57
2023/03/24 12:36:30;;;;;;;;;;;;;;;;;;4998122;28;6672;-57
2023/03/24 12:42:31;;;;;;;;;;;;;;;;;;4997960;28;7038;-57
2023/03/24 12:45:15;;;;;;;;;;;;;;;;;;4997881;28;6961;-57
2023/03/24 12:47:59;;;;;;;;;;;;;;;;;;4998028;28;6990;-57
2023/03/24 12:59:30;;;;;;;;;;;;;;;;;;5017572;28;7057;-57
2023/03/24 13:02:01;;;;;;;;;;;;;;;;;;5013127;28;7375;-57
2023/03/24 13:04:37;;;;;;;;;;;;;;;;;;5017250;28;7228;-57
2023/03/24 13:07:13;;;;;;;;;;;;;;;;;;5018127;28;7118;-57
2023/03/24 13:09:40;;;;;;;;;;;;;;;;;;5017211;28;7953;-57
2023/03/24 13:12:11;;;;;;;;;;;;;;;;;;5017275;28;6957;-57
2023/03/24 13:14:46;;;;;;;;;;;;;;;;;;5017377;28;7210;-57
2023/03/24 13:20:40;;;;;;;;;;;;;;;;;;5027685;28;6934;-57
2023/03/24 13:23:21;;;;;;;;;;;;;;;;;;5030495;28;6959;-57
2023/03/24 13:25:54;;;;;;;;;;;;;;;;;;5037141;28;6903;-57
2023/03/24 13:31:19;;;;;;;;;;;;;;;;;;5037099;28;6754;-57
2023/03/24 13:34:18;;;;;;;;;;;;;;;;;;5036412;28;7185;-57
2023/03/24 13:36:47;;;;;;;;;;;;;;;;;;5037038;28;7532;-56
2023/03/24 13:39:27;;;;;;;;;;;;;;;;;;5036266;28;6978;-57
2023/03/24 13:41:56;;;;;;;;;;;;;;;;;;5036577;28;7272;-57
2023/03/24 13:44:24;;;;;;;;;;;;;;;;;;5036349;28;7033;-57
2023/03/24 13:47:05;;;;;;;;;;;;;;;;;;5036329;28;7425;-57
2023/03/24 13:49:31;;;;;;;;;;;;;;;;;;5036374;28;6821;-57
2023/03/24 13:52:01;;;;;;;;;;;;;;;;;;5036395;28;6933;-57
2023/03/24 14:00:57;;;;;;;;;;;;;;;;;;5035412;28;6979;-57
2023/03/24 14:06:57;;;;;;;;;;;;;;;;;;5015887;28;6718;-57
2023/03/24 14:09:26;;;;;;;;;;;;;;;;;;5016313;28;7222;-57
2023/03/24 14:12:11;;;;;;;;;;;;;;;;;;5016202;28;7020;-57
2023/03/24 14:20:56;;;;;;;;;;;;;;;;;;5015813;28;6680;-57
2023/03/24 14:23:42;;;;;;;;;;;;;;;;;;5016042;28;7127;-57
2023/03/24 14:29:42;;;;;;;;;;;;;;;;;;5015828;28;6799;-57
2023/03/24 14:32:15;;;;;;;;;;;;;;;;;;5015764;28;7201;-56
2023/03/24 14:35:09;;;;;;;;;;;;;;;;;;5013951;28;7044;-57
2023/03/24 14:38:00;;;;;;;;;;;;;;;;;;5015273;28;7193;-57
2023/03/24 14:40:38;;;;;;;;;;;;;;;;;;5015586;28;6891;-57
2023/03/24 14:43:35;;;;;;;;;;;;;;;;;;4998081;28;8841;-57
2023/03/24 14:49:16;;;;;;;;;;;;;;;;;;4994848;28;6881;-57
2023/03/24 14:51:51;;;;;;;;;;;;;;;;;;5015390;28;7423;-57
2023/03/24 14:54:40;;;;;;;;;;;;;;;;;;5015347;28;7138;-57
2023/03/24 14:57:08;;;;;;;;;;;;;;;;;;5015315;28;7050;-57
2023/03/24 14:59:42;;;;;;;;;;;;;;;;;;5015313;28;7084;-57
2023/03/24 15:05:32;;;;;;;;;;;;;;;;;;5015156;28;6691;-57
2023/03/24 15:08:20;;;;;;;;;;;;;;;;;;5016806;28;8205;-57
2023/03/24 15:11:07;;;;;;;;;;;;;;;;;;5015206;28;7036;-57
2023/03/24 15:13:41;;;;;;;;;;;;;;;;;;5016045;28;7038;-57
2023/03/24 15:18:59;;;;;;;;;;;;;;;;;;5015754;28;7017;-57
2023/03/24 15:21:45;;;;;;;;;;;;;;;;;;5015073;28;7171;-57
2023/03/24 15:24:20;;;;;;;;;;;;;;;;;;5015087;28;7137;-57
2023/03/24 15:32:53;;;;;;;;;;;;;;;;;;5014773;28;6683;-57
2023/03/24 15:35:22;;;;;;;;;;;;;;;;;;5015470;28;7187;-57
2023/03/24 15:40:56;;;;;;;;;;;;;;;;;;5014781;28;6695;-57
2023/03/24 15:43:28;;;;;;;;;;;;;;;;;;5014792;28;7349;-57
2023/03/24 15:45:55;;;;;;;;;;;;;;;;;;5014664;28;7571;-57
2023/03/24 15:54:39;;;;;;;;;;;;;;;;;;5014500;28;6675;-57
2023/03/24 15:57:14;;;;;;;;;;;;;;;;;;5014775;28;7427;-57
2023/03/24 16:02:47;;;;;;;;;;;;;;;;;;5011684;28;7044;-57
2023/03/24 16:08:39;;;;;;;;;;;;;;;;;;5013817;28;6721;-57
2023/03/24 16:11:12;;;;;;;;;;;;;;;;;;5014087;28;6982;-57
2023/03/24 16:13:47;;;;;;;;;;;;;;;;;;5015201;28;7478;-56
2023/03/24 16:16:13;;;;;;;;;;;;;;;;;;5033906;28;6948;-57
2023/03/24 16:21:43;;;;;;;;;;;;;;;;;;5025716;28;6731;-59
2023/03/24 16:24:09;;;;;;;;;;;;;;;;;;5013935;28;7214;-59
2023/03/24 16:32:53;;;;;;;;;;;;;;;;;;5014072;28;7550;-59
2023/03/24 16:35:19;;;;;;;;;;;;;;;;;;5014376;28;7049;-59
2023/03/24 16:40:51;;;;;;;;;;;;;;;;;;5017596;28;6761;-59
2023/03/24 16:43:28;;;;;;;;;;;;;;;;;;5013434;28;8428;-59
2023/03/24 16:45:54;;;;;;;;;;;;;;;;;;5016723;28;8286;-59
2023/03/24 16:48:39;;;;;;;;;;;;;;;;;;5017664;28;6991;-59
2023/03/24 16:51:06;;;;;;;;;;;;;;;;;;5013435;28;7086;-59
2023/03/24 16:53:45;;;;;;;;;;;;;;;;;;5011405;28;6905;-59
2023/03/24 16:56:15;;;;;;;;;;;;;;;;;;5017617;28;7160;-59
2023/03/24 16:59:14;;;;;;;;;;;;;;;;;;5017597;28;6949;-60
2023/03/24 17:07:53;;;;;;;;;;;;;;;;;;5017167;28;6699;-59
2023/03/24 17:10:21;;;;;;;;;;;;;;;;;;5017439;28;7102;-59
2023/03/24 17:12:57;;;;;;;;;;;;;;;;;;5017315;28;7215;-60
2023/03/24 17:15:24;;;;;;;;;;;;;;;;;;5017602;28;7212;-59
2023/03/24 17:17:50;;;;;;;;;;;;;;;;;;5017434;28;7153;-59
2023/03/24 17:20:17;;;;;;;;;;;;;;;;;;5017165;28;7080;-57
2023/03/24 17:22:44;;;;;;;;;;;;;;;;;;5032928;28;7151;-57
2023/03/24 17:25:11;;;;;;;;;;;;;;;;;;5017184;28;6926;-57
2023/03/24 17:30:41;;;;;;;;;;;;;;;;;;5016945;28;6977;-57
2023/03/24 17:33:10;;;;;;;;;;;;;;;;;;5017044;28;7179;-57
2023/03/24 17:35:54;;;;;;;;;;;;;;;;;;5017164;28;6942;-57
2023/03/24 17:38:20;;;;;;;;;;;;;;;;;;5017188;28;7603;-57
2023/03/24 17:43:48;;;;;;;;;;;;;;;;;;5016454;28;6925;-57
2023/03/24 17:46:13;;;;;;;;;;;;;;;;;;5016714;28;7233;-57
2023/03/24 17:48:39;;;;;;;;;;;;;;;;;;5016352;28;7292;-57
2023/03/24 17:51:32;;;;;;;;;;;;;;;;;;5015650;28;7107;-57
2023/03/24 17:54:26;;;;;;;;;;;;;;;;;;5016540;28;7053;-57
2023/03/24 17:56:52;;;;;;;;;;;;;;;;;;5017193;28;7147;-57
2023/03/24 18:02:21;;;;;;;;;;;;;;;;;;5024585;28;6821;-57
2023/03/24 18:05:18;;;;;;;;;;;;;;;;;;5035784;28;7007;-57
2023/03/24 18:07:44;;;;;;;;;;;;;;;;;;5036519;28;6995;-56
2023/03/24 18:13:30;;;;;;;;;;;;;;;;;;5035789;28;6678;-57
2023/03/24 18:15:55;;;;;;;;;;;;;;;;;;5035684;28;7018;-58
2023/03/24 18:21:24;;;;;;;;;;;;;;;;;;5035518;28;6692;-57
2023/03/24 18:26:40;;;;;;;;;;;;;;;;;;5035945;28;6785;-57
2023/03/24 18:29:06;;;;;;;;;;;;;;;;;;5035598;28;7175;-57
2023/03/24 18:31:33;;;;;;;;;;;;;;;;;;5035640;28;6919;-56
2023/03/24 18:33:59;;;;;;;;;;;;;;;;;;5017921;28;7155;-59
2023/03/24 18:36:27;;;;;;;;;;;;;;;;;;5035455;28;7095;-60
2023/03/24 18:38:58;;;;;;;;;;;;;;;;;;5036119;28;7270;-59
2023/03/24 18:41:28;;;;;;;;;;;;;;;;;;5035475;28;7364;-59
2023/03/24 18:43:55;;;;;;;;;;;;;;;;;;5035411;28;7505;-60
2023/03/24 18:46:26;;;;;;;;;;;;;;;;;;5035280;28;7157;-59
2023/03/24 18:48:52;;;;;;;;;;;;;;;;;;5035223;28;7165;-57
2023/03/24 18:54:33;;;;;;;;;;;;;;;;;;5035022;28;6675;-57
2023/03/24 18:56:58;;;;;;;;;;;;;;;;;;5035136;28;7056;-56
2023/03/24 19:02:47;;;;;;;;;;;;;;;;;;5034743;28;6688;-53
2023/03/24 19:05:14;;;;;;;;;;;;;;;;;;5023710;28;7099;-49
2023/03/24 19:10:58;;;;;;;;;;;;;;;;;;5015003;28;6917;-60
2023/03/24 19:13:24;;;;;;;;;;;;;;;;;;5014952;28;7661;-60
2023/03/24 19:15:53;;;;;;;;;;;;;;;;;;5021013;28;7351;-60
2023/03/24 19:21:06;;;;;;;;;;;;;;;;;;5015477;28;6770;-60
2023/03/24 19:23:32;;;;;;;;;;;;;;;;;;5015124;28;7193;-60
2023/03/24 19:29:01;;;;;;;;;;;;;;;;;;5014711;28;6901;-60
2023/03/24 19:31:26;;;;;;;;;;;;;;;;;;5015055;28;7036;-60
2023/03/24 19:33:52;;;;;;;;;;;;;;;;;;5014664;28;7205;-60
2023/03/24 19:36:25;;;;;;;;;;;;;;;;;;5014987;28;6859;-60
2023/03/24 19:38:50;;;;;;;;;;;;;;;;;;5025527;28;7625;-60
2023/03/24 19:41:16;;;;;;;;;;;;;;;;;;5028951;28;7428;-60
2023/03/24 19:46:44;;;;;;;;;;;;;;;;;;5034179;28;7164;-60
2023/03/24 19:49:09;;;;;;;;;;;;;;;;;;5034653;28;7212;-60
2023/03/24 19:54:51;;;;;;;;;;;;;;;;;;5034351;28;6841;-60
2023/03/24 19:57:17;;;;;;;;;;;;;;;;;;5034372;28;7343;-61
2023/03/24 19:59:59;;;;;;;;;;;;;;;;;;5022974;28;7774;-61
2023/03/24 20:02:53;;;;;;;;;;;;;;;;;;5033933;28;7266;-61
2023/03/24 20:05:19;;;;;;;;;;;;;;;;;;5034628;28;6977;-61
2023/03/24 20:07:45;;;;;;;;;;;;;;;;;;5034241;28;6985;-61
2023/03/24 20:10:11;;;;;;;;;;;;;;;;;;5034475;28;7337;-61
2023/03/24 20:12:37;;;;;;;;;;;;;;;;;;5034361;28;7367;-61
2023/03/24 20:15:03;;;;;;;;;;;;;;;;;;5036616;28;7383;-61
2023/03/24 20:17:29;;;;;;;;;;;;;;;;;;5037922;28;7169;-61
2023/03/24 20:19:55;;;;;;;;;;;;;;;;;;5018023;28;7213;-61
2023/03/24 20:22:21;;;;;;;;;;;;;;;;;;5018926;28;7224;-61
2023/03/24 20:24:47;;;;;;;;;;;;;;;;;;5018281;28;6935;-61
2023/03/24 20:27:18;;;;;;;;;;;;;;;;;;5018341;28;7165;-61
2023/03/24 20:29:45;;;;;;;;;;;;;;;;;;5017908;28;7024;-61
2023/03/24 20:32:29;;;;;;;;;;;;;;;;;;5018182;28;6845;-61
2023/03/24 20:34:54;;;;;;;;;;;;;;;;;;5017747;28;8092;-61
2023/03/24 20:37:24;;;;;;;;;;;;;;;;;;5017873;28;7162;-61
2023/03/24 20:39:50;;;;;;;;;;;;;;;;;;5017532;28;7066;-61
2023/03/24 20:42:29;;;;;;;;;;;;;;;;;;5017643;28;7207;-61
2023/03/24 20:44:54;;;;;;;;;;;;;;;;;;5017828;28;6954;-61
2023/03/24 20:47:43;;;;;;;;;;;;;;;;;;5017656;28;7031;-61
2023/03/24 20:50:09;;;;;;;;;;;;;;;;;;5017867;28;7782;-61
2023/03/24 20:55:40;;;;;;;;;;;;;;;;;;5017380;28;6918;-61
2023/03/24 20:58:07;;;;;;;;;;;;;;;;;;5017402;28;7566;-61
2023/03/24 21:00:33;;;;;;;;;;;;;;;;;;5017211;28;7207;-61
2023/03/24 21:03:01;;;;;;;;;;;;;;;;;;5014994;28;7149;-61
2023/03/24 21:05:27;;;;;;;;;;;;;;;;;;5037251;28;6937;-61
2023/03/24 21:13:58;;;;;;;;;;;;;;;;;;5037205;28;7402;-61
2023/03/24 21:16:36;;;;;;;;;;;;;;;;;;5036871;28;7174;-61
2023/03/24 21:19:02;;;;;;;;;;;;;;;;;;5036694;28;7130;-61
2023/03/24 21:21:56;;;;;;;;;;;;;;;;;;5022095;28;7220;-61
2023/03/24 21:24:23;;;;;;;;;;;;;;;;;;5017143;28;7205;-61
2023/03/24 21:29:40;;;;;;;;;;;;;;;;;;5017287;28;7002;-61
2023/03/24 21:32:05;;;;;;;;;;;;;;;;;;5022667;28;7393;-61
2023/03/24 21:34:31;;;;;;;;;;;;;;;;;;5036743;28;7603;-61
2023/03/24 21:37:04;;;;;;;;;;;;;;;;;;5036578;28;7070;-61
2023/03/24 21:39:30;;;;;;;;;;;;;;;;;;5036692;28;7063;-61
2023/03/24 21:41:56;;;;;;;;;;;;;;;;;;5036638;28;7182;-61
2023/03/24 21:44:54;;;;;;;;;;;;;;;;;;5036638;28;7171;-61
2023/03/24 21:47:21;;;;;;;;;;;;;;;;;;5036334;28;7012;-61
2023/03/24 21:49:57;;;;;;;;;;;;;;;;;;5036111;28;7143;-61
2023/03/24 21:55:27;;;;;;;;;;;;;;;;;;5036165;28;6947;-61
2023/03/24 21:57:54;;;;;;;;;;;;;;;;;;5036097;28;7030;-61
2023/03/24 22:03:24;;;;;;;;;;;;;;;;;;5032627;28;6678;-61
2023/03/24 22:05:50;;;;;;;;;;;;;;;;;;5036094;28;7005;-61
2023/03/24 22:11:18;;;;;;;;;;;;;;;;;;5035727;28;6973;-61
2023/03/24 22:13:45;;;;;;;;;;;;;;;;;;5036073;28;7239;-61
2023/03/24 22:16:19;;;;;;;;;;;;;;;;;;5035718;28;6998;-61
2023/03/24 22:18:46;;;;;;;;;;;;;;;;;;5035627;28;7957;-60
2023/03/24 22:21:13;;;;;;;;;;;;;;;;;;5036233;28;7031;-61
2023/03/24 22:23:41;;;;;;;;;;;;;;;;;;5035792;28;7135;-61
2023/03/24 22:26:10;;;;;;;;;;;;;;;;;;5035403;28;6975;-61
2023/03/24 22:28:36;;;;;;;;;;;;;;;;;;5035472;28;7178;-61
2023/03/24 22:31:21;;;;;;;;;;;;;;;;;;5035277;28;7177;-61
2023/03/24 22:33:48;;;;;;;;;;;;;;;;;;5035274;28;6961;-61
2023/03/24 22:39:20;;;;;;;;;;;;;;;;;;5015527;28;6919;-61
2023/03/24 22:41:46;;;;;;;;;;;;;;;;;;5015681;28;7212;-61
2023/03/24 22:44:11;;;;;;;;;;;;;;;;;;5015711;28;7185;-61
2023/03/24 22:46:37;;;;;;;;;;;;;;;;;;5015086;28;7945;-61
2023/03/24 22:49:22;;;;;;;;;;;;;;;;;;5015479;28;7033;-61
2023/03/24 22:51:48;;;;;;;;;;;;;;;;;;5015225;28;7210;-61
2023/03/24 22:54:24;;;;;;;;;;;;;;;;;;5015493;28;7029;-61
2023/03/24 22:56:51;;;;;;;;;;;;;;;;;;5015403;28;7541;-60
2023/03/24 22:59:17;;;;;;;;;;;;;;;;;;5015453;28;6945;-60
2023/03/24 23:01:44;;;;;;;;;;;;;;;;;;5015949;28;7070;-60
2023/03/24 23:07:13;;;;;;;;;;;;;;;;;;5015029;28;6699;-60
2023/03/24 23:13:09;;;;;;;;;;;;;;;;;;5015080;28;7036;-60
2023/03/24 23:15:36;;;;;;;;;;;;;;;;;;5015338;28;7230;-60
2023/03/24 23:18:22;;;;;;;;;;;;;;;;;;4997370;28;7129;-60
2023/03/24 23:20:48;;;;;;;;;;;;;;;;;;5015708;28;7206;-60
2023/03/24 23:23:30;;;;;;;;;;;;;;;;;;5014852;28;7336;-60
2023/03/24 23:25:56;;;;;;;;;;;;;;;;;;5015058;28;7209;-60
2023/03/24 23:28:21;;;;;;;;;;;;;;;;;;5014860;28;7018;-60
2023/03/24 23:30:50;;;;;;;;;;;;;;;;;;5014895;28;6942;-60
2023/03/24 23:33:16;;;;;;;;;;;;;;;;;;5015291;28;7122;-60
2023/03/24 23:38:46;;;;;;;;;;;;;;;;;;5014766;28;6774;-61
2023/03/24 23:41:23;;;;;;;;;;;;;;;;;;5014479;28;6949;-61
2023/03/24 23:43:50;;;;;;;;;;;;;;;;;;5015285;28;7227;-61
2023/03/24 23:46:32;;;;;;;;;;;;;;;;;;5014888;28;6933;-61